sensor_id;sensor_type;location;lat;lon;timestamp;pressure;altitude;pressure_sealevel;temperature;humidity
76598;BME280;65486;53.144;18.134;2022-12-07T00:00:11;100379.81;;;2.56;86.15
76598;BME280;65486;53.144;18.134;2022-12-07T00:02:58;100380.65;;;2.58;86.01
76598;BME280;65486;53.144;18.134;2022-12-07T00:05:29;100381.80;;;2.62;86.04
76598;BME280;65486;53.144;18.134;2022-12-07T00:07:59;100380.13;;;2.62;86.05
76598;BME280;65486;53.144;18.134;2022-12-07T00:10:27;100382.63;;;2.59;86.15
76598;BME280;65486;53.144;18.134;2022-12-07T00:12:55;100378.77;;;2.54;86.10
76598;BME280;65486;53.144;18.134;2022-12-07T00:15:22;100374.22;;;2.50;86.16
76598;BME280;65486;53.144;18.134;2022-12-07T00:17:49;100374.09;;;2.48;86.05
76598;BME280;65486;53.144;18.134;2022-12-07T00:20:16;100372.19;;;2.47;86.10
76598;BME280;65486;53.144;18.134;2022-12-07T00:22:43;100373.30;;;2.47;86.26
76598;BME280;65486;53.144;18.134;2022-12-07T00:25:11;100370.79;;;2.47;86.23
76598;BME280;65486;53.144;18.134;2022-12-07T00:27:38;100368.98;;;2.47;86.44
76598;BME280;65486;53.144;18.134;2022-12-07T00:30:07;100364.80;;;2.47;86.27
76598;BME280;65486;53.144;18.134;2022-12-07T00:32:34;100368.50;;;2.45;86.36
76598;BME280;65486;53.144;18.134;2022-12-07T00:35:04;100365.48;;;2.43;86.38
76598;BME280;65486;53.144;18.134;2022-12-07T00:37:34;100365.25;;;2.43;86.13
76598;BME280;65486;53.144;18.134;2022-12-07T00:40:00;100367.35;;;2.44;86.30
76598;BME280;65486;53.144;18.134;2022-12-07T00:42:27;100364.60;;;2.44;86.34
76598;BME280;65486;53.144;18.134;2022-12-07T00:44:57;100362.80;;;2.41;86.37
76598;BME280;65486;53.144;18.134;2022-12-07T00:47:24;100362.18;;;2.38;86.41
76598;BME280;65486;53.144;18.134;2022-12-07T00:50:05;100361.16;;;2.38;86.26
76598;BME280;65486;53.144;18.134;2022-12-07T00:52:35;100361.05;;;2.40;86.29
76598;BME280;65486;53.144;18.134;2022-12-07T00:55:03;100362.45;;;2.44;86.23
76598;BME280;65486;53.144;18.134;2022-12-07T00:57:30;100357.86;;;2.47;86.19
76598;BME280;65486;53.144;18.134;2022-12-07T00:59:57;100359.70;;;2.47;86.06
76598;BME280;65486;53.144;18.134;2022-12-07T01:02:24;100359.84;;;2.49;86.12
76598;BME280;65486;53.144;18.134;2022-12-07T01:04:52;100355.60;;;2.51;86.08
76598;BME280;65486;53.144;18.134;2022-12-07T01:07:21;100350.58;;;2.51;85.96
76598;BME280;65486;53.144;18.134;2022-12-07T01:09:56;100349.56;;;2.50;85.93
76598;BME280;65486;53.144;18.134;2022-12-07T01:12:58;100349.47;;;2.48;85.95
76598;BME280;65486;53.144;18.134;2022-12-07T01:15:25;100345.55;;;2.44;86.18
76598;BME280;65486;53.144;18.134;2022-12-07T01:17:54;100346.55;;;2.42;86.17
76598;BME280;65486;53.144;18.134;2022-12-07T01:20:24;100346.50;;;2.39;86.09
76598;BME280;65486;53.144;18.134;2022-12-07T01:22:55;100341.03;;;2.38;86.24
76598;BME280;65486;53.144;18.134;2022-12-07T01:25:23;100340.28;;;2.38;86.14
76598;BME280;65486;53.144;18.134;2022-12-07T01:27:51;100339.87;;;2.40;86.16
76598;BME280;65486;53.144;18.134;2022-12-07T01:30:18;100335.02;;;2.38;86.16
76598;BME280;65486;53.144;18.134;2022-12-07T01:32:51;100335.55;;;2.38;86.14
76598;BME280;65486;53.144;18.134;2022-12-07T01:35:20;100333.77;;;2.39;86.14
76598;BME280;65486;53.144;18.134;2022-12-07T01:38:06;100333.55;;;2.41;86.16
76598;BME280;65486;53.144;18.134;2022-12-07T01:40:34;100326.77;;;2.45;86.06
76598;BME280;65486;53.144;18.134;2022-12-07T01:43:26;100324.90;;;2.47;86.04
76598;BME280;65486;53.144;18.134;2022-12-07T01:46:17;100320.98;;;2.45;86.06
76598;BME280;65486;53.144;18.134;2022-12-07T01:49:18;100319.31;;;2.40;86.12
76598;BME280;65486;53.144;18.134;2022-12-07T01:51:54;100315.45;;;2.38;86.11
76598;BME280;65486;53.144;18.134;2022-12-07T01:55:09;100300.79;;;2.30;86.05
76598;BME280;65486;53.144;18.134;2022-12-07T01:57:56;100307.18;;;2.40;86.08
76598;BME280;65486;53.144;18.134;2022-12-07T02:00:24;100298.95;;;2.42;86.27
76598;BME280;65486;53.144;18.134;2022-12-07T02:02:55;100296.80;;;2.44;86.11
76598;BME280;65486;53.144;18.134;2022-12-07T02:05:24;100289.86;;;2.44;86.08
76598;BME280;65486;53.144;18.134;2022-12-07T02:07:57;100295.13;;;2.41;86.00
76598;BME280;65486;53.144;18.134;2022-12-07T02:10:39;100290.66;;;2.39;86.08
76598;BME280;65486;53.144;18.134;2022-12-07T02:13:16;100289.48;;;2.37;86.22
76598;BME280;65486;53.144;18.134;2022-12-07T02:19:08;100287.13;;;2.35;86.34
76598;BME280;65486;53.144;18.134;2022-12-07T02:30:36;100287.27;;;2.34;86.39
76598;BME280;65486;53.144;18.134;2022-12-07T02:33:15;100286.79;;;2.33;86.43
76598;BME280;65486;53.144;18.134;2022-12-07T02:35:49;100285.34;;;2.32;86.44
76598;BME280;65486;53.144;18.134;2022-12-07T02:40:48;100280.73;;;2.33;86.57
76598;BME280;65486;53.144;18.134;2022-12-07T02:44:00;100282.48;;;2.36;86.63
76598;BME280;65486;53.144;18.134;2022-12-07T02:46:53;100278.31;;;2.37;86.49
76598;BME280;65486;53.144;18.134;2022-12-07T02:49:56;100275.59;;;2.41;86.51
76598;BME280;65486;53.144;18.134;2022-12-07T02:52:58;100271.67;;;2.41;86.61
76598;BME280;65486;53.144;18.134;2022-12-07T02:55:39;100270.48;;;2.42;86.61
76598;BME280;65486;53.144;18.134;2022-12-07T02:58:18;100270.40;;;2.44;86.64
76598;BME280;65486;53.144;18.134;2022-12-07T03:01:48;100266.45;;;2.45;86.47
76598;BME280;65486;53.144;18.134;2022-12-07T03:14:00;100270.44;;;2.47;86.70
76598;BME280;65486;53.144;18.134;2022-12-07T03:16:57;100264.58;;;2.46;86.78
76598;BME280;65486;53.144;18.134;2022-12-07T03:19:39;100268.80;;;2.45;86.88
76598;BME280;65486;53.144;18.134;2022-12-07T03:22:14;100266.33;;;2.46;86.83
76598;BME280;65486;53.144;18.134;2022-12-07T03:24:47;100264.11;;;2.48;86.89
76598;BME280;65486;53.144;18.134;2022-12-07T03:27:20;100263.91;;;2.50;86.83
76598;BME280;65486;53.144;18.134;2022-12-07T03:32:45;100253.98;;;2.53;86.94
76598;BME280;65486;53.144;18.134;2022-12-07T03:35:27;100263.80;;;2.57;86.83
76598;BME280;65486;53.144;18.134;2022-12-07T03:40:48;100253.11;;;2.57;86.91
76598;BME280;65486;53.144;18.134;2022-12-07T03:43:18;100252.31;;;2.57;86.96
76598;BME280;65486;53.144;18.134;2022-12-07T03:49:21;100254.04;;;2.56;86.92
76598;BME280;65486;53.144;18.134;2022-12-07T03:51:57;100250.08;;;2.55;86.86
76598;BME280;65486;53.144;18.134;2022-12-07T03:55:00;100245.84;;;2.52;86.88
76598;BME280;65486;53.144;18.134;2022-12-07T03:57:46;100246.01;;;2.52;86.78
76598;BME280;65486;53.144;18.134;2022-12-07T04:00:18;100244.81;;;2.53;86.56
76598;BME280;65486;53.144;18.134;2022-12-07T04:02:54;100241.10;;;2.54;86.55
76598;BME280;65486;53.144;18.134;2022-12-07T04:05:22;100240.80;;;2.53;86.45
76598;BME280;65486;53.144;18.134;2022-12-07T04:07:50;100235.82;;;2.51;86.47
76598;BME280;65486;53.144;18.134;2022-12-07T04:10:19;100231.41;;;2.51;86.58
76598;BME280;65486;53.144;18.134;2022-12-07T04:12:47;100232.81;;;2.52;86.52
76598;BME280;65486;53.144;18.134;2022-12-07T04:15:15;100231.06;;;2.53;86.59
76598;BME280;65486;53.144;18.134;2022-12-07T04:17:43;100229.91;;;2.52;86.50
76598;BME280;65486;53.144;18.134;2022-12-07T04:20:11;100228.98;;;2.51;86.44
76598;BME280;65486;53.144;18.134;2022-12-07T04:22:42;100229.28;;;2.51;86.42
76598;BME280;65486;53.144;18.134;2022-12-07T04:25:11;100228.42;;;2.50;86.40
76598;BME280;65486;53.144;18.134;2022-12-07T04:27:39;100228.25;;;2.49;86.22
76598;BME280;65486;53.144;18.134;2022-12-07T04:30:09;100228.77;;;2.48;86.21
76598;BME280;65486;53.144;18.134;2022-12-07T04:32:38;100225.73;;;2.46;86.30
76598;BME280;65486;53.144;18.134;2022-12-07T04:35:06;100230.95;;;2.45;86.22
76598;BME280;65486;53.144;18.134;2022-12-07T04:37:37;100228.84;;;2.45;86.09
76598;BME280;65486;53.144;18.134;2022-12-07T04:40:10;100230.14;;;2.43;86.16
76598;BME280;65486;53.144;18.134;2022-12-07T04:42:42;100225.83;;;2.45;86.06
76598;BME280;65486;53.144;18.134;2022-12-07T04:45:09;100223.27;;;2.47;85.89
76598;BME280;65486;53.144;18.134;2022-12-07T04:47:40;100218.63;;;2.48;85.89
76598;BME280;65486;53.144;18.134;2022-12-07T04:50:09;100217.48;;;2.47;85.81
76598;BME280;65486;53.144;18.134;2022-12-07T04:52:41;100220.48;;;2.45;85.90
76598;BME280;65486;53.144;18.134;2022-12-07T04:55:09;100218.23;;;2.41;85.69
76598;BME280;65486;53.144;18.134;2022-12-07T04:57:37;100218.61;;;2.41;85.91
76598;BME280;65486;53.144;18.134;2022-12-07T05:00:05;100216.38;;;2.38;85.66
76598;BME280;65486;53.144;18.134;2022-12-07T05:02:32;100213.42;;;2.34;85.76
76598;BME280;65486;53.144;18.134;2022-12-07T05:04:59;100211.80;;;2.30;85.73
76598;BME280;65486;53.144;18.134;2022-12-07T05:07:26;100214.17;;;2.24;85.78
76598;BME280;65486;53.144;18.134;2022-12-07T05:09:54;100212.21;;;2.17;85.75
76598;BME280;65486;53.144;18.134;2022-12-07T05:12:28;100209.45;;;2.10;85.73
76598;BME280;65486;53.144;18.134;2022-12-07T05:15:08;100207.44;;;2.05;85.63
76598;BME280;65486;53.144;18.134;2022-12-07T05:17:40;100205.63;;;2.02;85.62
76598;BME280;65486;53.144;18.134;2022-12-07T05:20:28;100209.44;;;2.01;85.56
76598;BME280;65486;53.144;18.134;2022-12-07T05:23:00;100207.30;;;1.98;85.76
76598;BME280;65486;53.144;18.134;2022-12-07T05:25:50;100205.84;;;1.93;85.70
76598;BME280;65486;53.144;18.134;2022-12-07T05:28:23;100204.14;;;1.89;85.59
76598;BME280;65486;53.144;18.134;2022-12-07T05:30:55;100207.71;;;1.88;85.50
76598;BME280;65486;53.144;18.134;2022-12-07T05:33:44;100209.64;;;1.84;85.34
76598;BME280;65486;53.144;18.134;2022-12-07T05:36:33;100205.65;;;1.81;85.27
76598;BME280;65486;53.144;18.134;2022-12-07T05:39:22;100203.70;;;1.76;85.12
76598;BME280;65486;53.144;18.134;2022-12-07T05:41:51;100207.03;;;1.71;85.10
76598;BME280;65486;53.144;18.134;2022-12-07T05:45:18;100209.13;;;1.64;85.02
76598;BME280;65486;53.144;18.134;2022-12-07T05:47:51;100209.22;;;1.60;84.94
76598;BME280;65486;53.144;18.134;2022-12-07T05:50:24;100215.04;;;1.58;84.94
76598;BME280;65486;53.144;18.134;2022-12-07T05:53:00;100210.30;;;1.57;84.84
76598;BME280;65486;53.144;18.134;2022-12-07T05:55:28;100212.02;;;1.54;84.70
76598;BME280;65486;53.144;18.134;2022-12-07T05:58:09;100220.09;;;1.52;84.80
76598;BME280;65486;53.144;18.134;2022-12-07T06:00:55;100220.59;;;1.48;84.91
76598;BME280;65486;53.144;18.134;2022-12-07T06:03:23;100226.30;;;1.47;84.94
76598;BME280;65486;53.144;18.134;2022-12-07T06:05:51;100223.25;;;1.47;84.89
76598;BME280;65486;53.144;18.134;2022-12-07T06:08:18;100222.77;;;1.47;84.87
76598;BME280;65486;53.144;18.134;2022-12-07T06:10:48;100226.21;;;1.43;85.01
76598;BME280;65486;53.144;18.134;2022-12-07T06:13:36;100220.88;;;1.39;84.78
76598;BME280;65486;53.144;18.134;2022-12-07T06:16:06;100221.96;;;1.38;84.92
76598;BME280;65486;53.144;18.134;2022-12-07T06:18:33;100216.71;;;1.35;84.64
76598;BME280;65486;53.144;18.134;2022-12-07T06:21:04;100221.33;;;1.37;84.71
76598;BME280;65486;53.144;18.134;2022-12-07T06:23:33;100221.14;;;1.36;84.71
76598;BME280;65486;53.144;18.134;2022-12-07T06:26:00;100221.60;;;1.35;84.81
76598;BME280;65486;53.144;18.134;2022-12-07T06:28:28;100221.59;;;1.32;84.78
76598;BME280;65486;53.144;18.134;2022-12-07T06:31:00;100223.20;;;1.29;84.83
76598;BME280;65486;53.144;18.134;2022-12-07T06:33:29;100222.33;;;1.25;84.81
76598;BME280;65486;53.144;18.134;2022-12-07T06:35:55;100225.49;;;1.23;84.77
76598;BME280;65486;53.144;18.134;2022-12-07T06:38:22;100226.55;;;1.22;84.79
76598;BME280;65486;53.144;18.134;2022-12-07T06:40:52;100228.33;;;1.22;84.78
76598;BME280;65486;53.144;18.134;2022-12-07T06:43:21;100231.21;;;1.20;84.93
76598;BME280;65486;53.144;18.134;2022-12-07T06:45:48;100236.45;;;1.21;84.91
76598;BME280;65486;53.144;18.134;2022-12-07T06:48:19;100232.30;;;1.22;84.90
76598;BME280;65486;53.144;18.134;2022-12-07T06:50:48;100232.42;;;1.19;84.77
76598;BME280;65486;53.144;18.134;2022-12-07T06:53:15;100219.02;;;1.12;84.81
76598;BME280;65486;53.144;18.134;2022-12-07T06:55:42;100227.84;;;1.17;84.66
76598;BME280;65486;53.144;18.134;2022-12-07T06:58:09;100227.15;;;1.15;84.84
76598;BME280;65486;53.144;18.134;2022-12-07T07:00:36;100222.92;;;1.12;84.71
76598;BME280;65486;53.144;18.134;2022-12-07T07:03:03;100222.65;;;1.13;84.67
76598;BME280;65486;53.144;18.134;2022-12-07T07:05:32;100223.31;;;1.12;84.78
76598;BME280;65486;53.144;18.134;2022-12-07T07:08:00;100221.89;;;1.09;84.48
76598;BME280;65486;53.144;18.134;2022-12-07T07:10:30;100218.95;;;1.05;84.51
76598;BME280;65486;53.144;18.134;2022-12-07T07:12:58;100219.42;;;1.05;84.77
76598;BME280;65486;53.144;18.134;2022-12-07T07:15:33;100221.61;;;1.08;84.79
76598;BME280;65486;53.144;18.134;2022-12-07T07:18:01;100223.30;;;1.09;84.47
76598;BME280;65486;53.144;18.134;2022-12-07T07:20:29;100220.83;;;1.09;84.59
76598;BME280;65486;53.144;18.134;2022-12-07T07:22:57;100218.98;;;1.09;84.49
76598;BME280;65486;53.144;18.134;2022-12-07T07:25:24;100217.06;;;1.08;84.49
76598;BME280;65486;53.144;18.134;2022-12-07T07:27:52;100220.90;;;1.10;84.44
76598;BME280;65486;53.144;18.134;2022-12-07T07:30:19;100218.08;;;1.10;84.54
76598;BME280;65486;53.144;18.134;2022-12-07T07:32:49;100217.36;;;1.12;84.46
76598;BME280;65486;53.144;18.134;2022-12-07T07:35:16;100220.36;;;1.11;84.29
76598;BME280;65486;53.144;18.134;2022-12-07T07:37:43;100219.95;;;1.10;84.40
76598;BME280;65486;53.144;18.134;2022-12-07T07:40:10;100217.23;;;1.10;84.36
76598;BME280;65486;53.144;18.134;2022-12-07T07:42:37;100215.57;;;1.12;84.31
76598;BME280;65486;53.144;18.134;2022-12-07T07:45:04;100213.25;;;1.16;84.35
76598;BME280;65486;53.144;18.134;2022-12-07T07:47:31;100210.48;;;1.20;84.11
76598;BME280;65486;53.144;18.134;2022-12-07T07:49:58;100211.58;;;1.23;84.14
76598;BME280;65486;53.144;18.134;2022-12-07T07:52:26;100206.63;;;1.23;83.84
76598;BME280;65486;53.144;18.134;2022-12-07T07:54:57;100210.25;;;1.23;83.73
76598;BME280;65486;53.144;18.134;2022-12-07T07:57:24;100209.60;;;1.24;83.83
76598;BME280;65486;53.144;18.134;2022-12-07T07:59:51;100208.46;;;1.27;83.91
76598;BME280;65486;53.144;18.134;2022-12-07T08:02:19;100206.79;;;1.31;83.81
76598;BME280;65486;53.144;18.134;2022-12-07T08:04:48;100209.81;;;1.36;83.80
76598;BME280;65486;53.144;18.134;2022-12-07T08:07:15;100212.38;;;1.41;83.53
76598;BME280;65486;53.144;18.134;2022-12-07T08:09:43;100209.96;;;1.47;83.70
76598;BME280;65486;53.144;18.134;2022-12-07T08:12:10;100214.90;;;1.59;83.40
76598;BME280;65486;53.144;18.134;2022-12-07T08:14:40;100213.10;;;1.75;83.31
76598;BME280;65486;53.144;18.134;2022-12-07T08:17:08;100210.33;;;1.81;83.23
76598;BME280;65486;53.144;18.134;2022-12-07T08:19:36;100208.13;;;1.83;82.63
76598;BME280;65486;53.144;18.134;2022-12-07T08:22:04;100204.92;;;1.81;82.68
76598;BME280;65486;53.144;18.134;2022-12-07T08:24:34;100206.23;;;1.78;82.57
76598;BME280;65486;53.144;18.134;2022-12-07T08:27:03;100201.52;;;1.73;82.73
76598;BME280;65486;53.144;18.134;2022-12-07T08:29:30;100203.47;;;1.75;82.89
76598;BME280;65486;53.144;18.134;2022-12-07T08:31:57;100199.20;;;1.79;82.75
76598;BME280;65486;53.144;18.134;2022-12-07T08:34:26;100199.61;;;1.88;82.67
76598;BME280;65486;53.144;18.134;2022-12-07T08:36:53;100197.48;;;1.96;82.55
76598;BME280;65486;53.144;18.134;2022-12-07T08:39:22;100193.09;;;2.01;82.83
76598;BME280;65486;53.144;18.134;2022-12-07T08:41:48;100189.45;;;2.07;82.68
76598;BME280;65486;53.144;18.134;2022-12-07T08:44:17;100193.11;;;2.14;82.67
76598;BME280;65486;53.144;18.134;2022-12-07T08:46:52;100196.23;;;2.13;82.51
76598;BME280;65486;53.144;18.134;2022-12-07T08:49:36;100196.83;;;2.11;82.77
76598;BME280;65486;53.144;18.134;2022-12-07T08:52:09;100197.73;;;2.09;82.85
76598;BME280;65486;53.144;18.134;2022-12-07T08:54:38;100193.52;;;2.08;82.62
76598;BME280;65486;53.144;18.134;2022-12-07T08:57:11;100191.17;;;2.06;82.79
76598;BME280;65486;53.144;18.134;2022-12-07T08:59:41;100187.85;;;2.05;83.04
76598;BME280;65486;53.144;18.134;2022-12-07T09:02:10;100183.27;;;2.04;82.96
76598;BME280;65486;53.144;18.134;2022-12-07T09:04:38;100175.71;;;2.04;83.18
76598;BME280;65486;53.144;18.134;2022-12-07T09:07:05;100174.63;;;2.02;83.36
76598;BME280;65486;53.144;18.134;2022-12-07T09:09:32;100173.74;;;2.02;83.29
76598;BME280;65486;53.144;18.134;2022-12-07T09:11:59;100173.10;;;2.06;83.29
76598;BME280;65486;53.144;18.134;2022-12-07T09:14:28;100168.91;;;2.11;83.18
76598;BME280;65486;53.144;18.134;2022-12-07T09:16:55;100169.66;;;2.15;83.38
76598;BME280;65486;53.144;18.134;2022-12-07T09:19:25;100165.44;;;2.20;83.43
76598;BME280;65486;53.144;18.134;2022-12-07T09:21:52;100133.67;;;2.10;83.07
76598;BME280;65486;53.144;18.134;2022-12-07T09:24:19;100159.99;;;2.30;83.07
76598;BME280;65486;53.144;18.134;2022-12-07T09:26:45;100155.00;;;2.40;83.05
76598;BME280;65486;53.144;18.134;2022-12-07T09:29:12;100146.49;;;2.50;82.80
76598;BME280;65486;53.144;18.134;2022-12-07T09:31:40;100142.80;;;2.58;82.55
76598;BME280;65486;53.144;18.134;2022-12-07T09:34:07;100137.88;;;2.62;82.52
76598;BME280;65486;53.144;18.134;2022-12-07T09:36:36;100135.59;;;2.66;82.64
76598;BME280;65486;53.144;18.134;2022-12-07T09:39:04;100135.77;;;2.67;82.42
76598;BME280;65486;53.144;18.134;2022-12-07T09:41:32;100133.45;;;2.65;82.42
76598;BME280;65486;53.144;18.134;2022-12-07T09:44:24;100132.95;;;2.66;82.26
76598;BME280;65486;53.144;18.134;2022-12-07T09:46:52;100127.77;;;2.66;82.39
76598;BME280;65486;53.144;18.134;2022-12-07T09:49:24;100127.12;;;2.68;82.23
76598;BME280;65486;53.144;18.134;2022-12-07T09:54:40;100117.98;;;2.73;82.20
76598;BME280;65486;53.144;18.134;2022-12-07T09:57:08;100108.29;;;2.72;82.41
76598;BME280;65486;53.144;18.134;2022-12-07T09:59:38;100114.89;;;2.80;82.10
76598;BME280;65486;53.144;18.134;2022-12-07T10:04:52;100106.88;;;2.83;82.21
76598;BME280;65486;53.144;18.134;2022-12-07T10:07:19;100105.12;;;2.83;82.06
76598;BME280;65486;53.144;18.134;2022-12-07T10:09:47;100100.55;;;2.82;81.84
76598;BME280;65486;53.144;18.134;2022-12-07T10:12:17;100099.72;;;2.79;81.89
76598;BME280;65486;53.144;18.134;2022-12-07T10:15:00;100100.69;;;2.76;82.10
76598;BME280;65486;53.144;18.134;2022-12-07T10:20:14;100095.45;;;2.74;81.77
76598;BME280;65486;53.144;18.134;2022-12-07T10:23:13;100092.90;;;2.75;81.79
76598;BME280;65486;53.144;18.134;2022-12-07T10:25:41;100092.68;;;2.70;81.99
76598;BME280;65486;53.144;18.134;2022-12-07T10:28:15;100090.98;;;2.68;81.97
76598;BME280;65486;53.144;18.134;2022-12-07T10:33:34;100084.10;;;2.64;81.72
76598;BME280;65486;53.144;18.134;2022-12-07T10:36:36;100080.41;;;2.58;81.77
76598;BME280;65486;53.144;18.134;2022-12-07T10:39:17;100070.38;;;2.57;81.98
76598;BME280;65486;53.144;18.134;2022-12-07T10:42:03;100070.17;;;2.59;82.10
76598;BME280;65486;53.144;18.134;2022-12-07T10:44:37;100073.35;;;2.63;82.08
76598;BME280;65486;53.144;18.134;2022-12-07T10:47:17;100067.13;;;2.66;82.35
76598;BME280;65486;53.144;18.134;2022-12-07T10:49:57;100068.20;;;2.65;82.32
76598;BME280;65486;53.144;18.134;2022-12-07T11:06:33;100050.22;;;2.48;82.26
76598;BME280;65486;53.144;18.134;2022-12-07T11:12:34;100039.48;;;2.50;82.26
76598;BME280;65486;53.144;18.134;2022-12-07T11:15:23;100045.48;;;2.51;82.42
76598;BME280;65486;53.144;18.134;2022-12-07T11:23:18;100030.65;;;2.50;82.66
76598;BME280;65486;53.144;18.134;2022-12-07T11:26:01;100024.00;;;2.52;82.69
76598;BME280;65486;53.144;18.134;2022-12-07T11:34:13;100014.24;;;2.67;82.83
76598;BME280;65486;53.144;18.134;2022-12-07T11:36:49;100014.40;;;2.70;82.77
76598;BME280;65486;53.144;18.134;2022-12-07T11:41:55;100001.20;;;2.69;82.71
76598;BME280;65486;53.144;18.134;2022-12-07T11:44:36;100001.80;;;2.70;82.58
76598;BME280;65486;53.144;18.134;2022-12-07T11:47:11;99999.25;;;2.70;82.50
76598;BME280;65486;53.144;18.134;2022-12-07T11:49:58;99993.77;;;2.71;82.55
76598;BME280;65486;53.144;18.134;2022-12-07T11:55:39;99990.92;;;2.64;82.72
76598;BME280;65486;53.144;18.134;2022-12-07T12:06:57;99982.80;;;2.54;82.93
76598;BME280;65486;53.144;18.134;2022-12-07T12:09:42;99977.98;;;2.53;82.81
76598;BME280;65486;53.144;18.134;2022-12-07T12:12:33;99978.40;;;2.50;82.81
76598;BME280;65486;53.144;18.134;2022-12-07T12:20:50;99971.65;;;2.43;82.63
76598;BME280;65486;53.144;18.134;2022-12-07T12:23:22;99969.30;;;2.43;82.70
76598;BME280;65486;53.144;18.134;2022-12-07T12:26:01;99964.79;;;2.43;82.63
76598;BME280;65486;53.144;18.134;2022-12-07T12:34:00;99955.73;;;2.29;82.72
76598;BME280;65486;53.144;18.134;2022-12-07T12:39:19;99963.30;;;2.31;82.81
76598;BME280;65486;53.144;18.134;2022-12-07T12:41:56;99961.40;;;2.33;82.86
76598;BME280;65486;53.144;18.134;2022-12-07T12:44:41;99956.87;;;2.35;82.91
76598;BME280;65486;53.144;18.134;2022-12-07T12:47:42;99950.64;;;2.37;82.99
76598;BME280;65486;53.144;18.134;2022-12-07T12:50:34;99952.94;;;2.36;82.89
76598;BME280;65486;53.144;18.134;2022-12-07T12:55:49;99948.69;;;2.32;82.93
76598;BME280;65486;53.144;18.134;2022-12-07T12:58:30;99945.66;;;2.30;82.90
76598;BME280;65486;53.144;18.134;2022-12-07T13:03:56;99938.85;;;2.21;83.28
76598;BME280;65486;53.144;18.134;2022-12-07T13:08:54;99934.05;;;2.19;83.33
76598;BME280;65486;53.144;18.134;2022-12-07T13:11:32;99939.05;;;2.20;83.40
76598;BME280;65486;53.144;18.134;2022-12-07T13:23:21;99939.37;;;2.12;83.36
76598;BME280;65486;53.144;18.134;2022-12-07T13:28:39;99938.91;;;2.00;83.71
76598;BME280;65486;53.144;18.134;2022-12-07T13:31:23;99938.33;;;1.95;83.77
76598;BME280;65486;53.144;18.134;2022-12-07T13:33:52;99946.69;;;1.96;83.86
76598;BME280;65486;53.144;18.134;2022-12-07T13:36:27;99942.77;;;1.92;83.89
76598;BME280;65486;53.144;18.134;2022-12-07T13:38:58;99941.11;;;1.91;83.91
76598;BME280;65486;53.144;18.134;2022-12-07T13:41:41;99947.39;;;1.86;83.75
76598;BME280;65486;53.144;18.134;2022-12-07T13:44:14;99950.67;;;1.84;84.00
76598;BME280;65486;53.144;18.134;2022-12-07T13:47:16;99946.52;;;1.82;84.18
76598;BME280;65486;53.144;18.134;2022-12-07T13:49:55;99946.30;;;1.83;84.19
76598;BME280;65486;53.144;18.134;2022-12-07T13:52:26;99943.66;;;1.84;84.23
76598;BME280;65486;53.144;18.134;2022-12-07T13:54:59;99941.02;;;1.85;84.17
76598;BME280;65486;53.144;18.134;2022-12-07T13:57:28;99945.55;;;1.86;84.38
76598;BME280;65486;53.144;18.134;2022-12-07T13:59:58;99944.88;;;1.86;84.08
76598;BME280;65486;53.144;18.134;2022-12-07T14:02:33;99946.27;;;1.86;84.38
76598;BME280;65486;53.144;18.134;2022-12-07T14:05:23;99948.00;;;1.87;84.33
76598;BME280;65486;53.144;18.134;2022-12-07T14:08:04;99949.14;;;1.82;84.34
76598;BME280;65486;53.144;18.134;2022-12-07T14:13:31;99951.77;;;1.81;84.28
76598;BME280;65486;53.144;18.134;2022-12-07T14:16:03;99947.66;;;1.78;84.31
76598;BME280;65486;53.144;18.134;2022-12-07T14:18:40;99949.16;;;1.78;84.28
76598;BME280;65486;53.144;18.134;2022-12-07T14:21:20;99949.83;;;1.75;84.41
76598;BME280;65486;53.144;18.134;2022-12-07T14:24:12;99948.56;;;1.72;84.42
76598;BME280;65486;53.144;18.134;2022-12-07T14:26:41;99951.68;;;1.73;84.37
76598;BME280;65486;53.144;18.134;2022-12-07T14:31:54;99948.36;;;1.75;84.42
76598;BME280;65486;53.144;18.134;2022-12-07T14:34:23;99946.08;;;1.73;84.32
76598;BME280;65486;53.144;18.134;2022-12-07T14:36:50;99949.28;;;1.75;84.27
76598;BME280;65486;53.144;18.134;2022-12-07T14:39:17;99953.83;;;1.74;84.39
76598;BME280;65486;53.144;18.134;2022-12-07T14:41:45;99954.04;;;1.71;84.47
76598;BME280;65486;53.144;18.134;2022-12-07T14:44:22;99958.13;;;1.70;84.56
76598;BME280;65486;53.144;18.134;2022-12-07T14:46:50;99958.82;;;1.69;84.41
76598;BME280;65486;53.144;18.134;2022-12-07T14:49:20;99960.48;;;1.66;84.50
76598;BME280;65486;53.144;18.134;2022-12-07T14:51:47;99962.44;;;1.60;84.49
76598;BME280;65486;53.144;18.134;2022-12-07T14:54:20;99961.11;;;1.58;84.56
76598;BME280;65486;53.144;18.134;2022-12-07T14:56:47;99960.15;;;1.55;84.66
76598;BME280;65486;53.144;18.134;2022-12-07T14:59:17;99959.70;;;1.53;84.71
76598;BME280;65486;53.144;18.134;2022-12-07T15:01:45;99962.12;;;1.53;84.75
76598;BME280;65486;53.144;18.134;2022-12-07T15:04:13;99966.59;;;1.53;84.73
76598;BME280;65486;53.144;18.134;2022-12-07T15:06:53;99962.17;;;1.54;84.81
76598;BME280;65486;53.144;18.134;2022-12-07T15:09:21;99957.77;;;1.51;84.96
76598;BME280;65486;53.144;18.134;2022-12-07T15:11:47;99964.03;;;1.50;84.92
76598;BME280;65486;53.144;18.134;2022-12-07T15:14:17;99962.56;;;1.50;84.97
76598;BME280;65486;53.144;18.134;2022-12-07T15:16:44;99961.31;;;1.50;84.81
76598;BME280;65486;53.144;18.134;2022-12-07T15:19:17;99959.52;;;1.50;84.86
76598;BME280;65486;53.144;18.134;2022-12-07T15:21:45;99962.84;;;1.51;84.85
76598;BME280;65486;53.144;18.134;2022-12-07T15:24:15;99965.59;;;1.51;84.97
76598;BME280;65486;53.144;18.134;2022-12-07T15:26:42;99967.96;;;1.52;84.83
76598;BME280;65486;53.144;18.134;2022-12-07T15:29:15;99972.89;;;1.52;84.67
76598;BME280;65486;53.144;18.134;2022-12-07T15:31:43;99966.94;;;1.51;84.53